Airfield :
LOGIN :

Register | Disclaimer

   EN    FR    IT 

 










Legend :    VFR   Marginal VFR   IFR   Intensive IFR   Very Intensive IFR
Visi :
Ceiling :
>= 8 km
>= 3000ft
5 to 8 km
1000 to 3000 ft
1500m to 5 km
500 to 1000 ft
800 to 1500m
200 to 500 ft
< 800m
< 200 ft
Symbols :   Thunderstorms  Fog  Heavy snow  Heavy precipitations  Wind > 20 kt
SIGMETs :     Misc.  Thunderstorms  Icing  Turbulence  Mountain Waves  Volcanic Ashes






- Airport Elevation : 598 ft
- IATA code : BQH


EGKB - Biggin Hill

CURRENT METAR :
  • 161050Z 19005KT 130V300 9999 SCT010 12/10 Q1021

EXPIRED METARs :
  • 161020Z 14007KT 110V180 9999 SCT025 BKN040 12/10 Q1021
  • 160950Z 13006KT 9999 SCT035 12/09 Q1021
  • 160920Z 15006KT 9999 -RA BKN035 11/09 Q1021
  • 160850Z 16007KT 110V170 9999 -RA BKN040 11/09 Q1021
  • 160820Z 17008KT 9999 BKN040 11/08 Q1021

TAF TAF EGKB
Valid from the 16 at 09:00 until the 16 at 18:00 UTC


160758Z 1609/1618 16010KT 9999 SCT025
PROB30
TEMPO 1609/1613 8000 -RA BKN009



MET'MAP, your aeronautical weather chart ! - Copyright ORBIFLY December 2007 - Disclaimer

ORBIFLY MET'MAP TEAM :

Programming & Development : Alexandra Zaïnal
Concept & original design : Baudouin d'Aumeries
Assistance for programming : Marc-Olivier Méhu
Technical & hardware support : Manuel Goepfert

Contact : metmap@orbifly.com




SOURCES & CREDITS :

   NOAA